NCAR-RAP Real-Time Weather Data

Output produced by METARs form (23 June 2018  19:32 UTC)
found at http://weather.rap.ucar.edu/surface/
 
RJAA 231900Z 16003KT 3200 -SHRA BR FEW005 BKN130 18/18 Q1005 TEMPO 3000 -RA BR FEW006 BKN012 RMK 1ST005 7AC130 A2968
RJAA 231830Z 17002KT 3500 BR FEW005 BKN140 BKN190 17/17 Q1004 TEMPO 3000 -RA BR
RJAA 231800Z 15001KT 3500 BR FEW005 BKN140 BKN200 17/17 Q1004 TEMPO 3000 BR RMK 1ST005 5AC140 7AC200 A2966
RJAA 231730Z 11001KT 3500 BR FEW003 BKN140 17/17 Q1004 TEMPO 3000 BR
RJAA 231700Z VRB01KT 3500 MIFG BR FEW003 BKN150 17/17 Q1004 TEMPO 3000 BR
RJAA 231630Z 00000KT 3000 MIFG BR FEW003 BKN/// 17/17 Q1004 NOSIG
RJAA 231600Z 19002KT 3500 BR FEW003 BKN/// 17/17 Q1004 TEMPO 3000 BR FEW004 BKN008
RJAA 231530Z 19004KT 150V220 3500 BR FEW003 SCT150 BKN/// 18/17 Q1004 TEMPO FEW004 BKN008
RJAA 231500Z 19007KT 3500 BR FEW002 BKN150 BKN/// 18/17 Q1004 NOSIG
RJAA 231430Z 20005KT 3500 BR FEW002 BKN150 BKN/// 18/18 Q1004 TEMPO 3000 BR
RJAA 231400Z 20004KT 3500 BR FEW003 BKN/// 18/18 Q1004 TEMPO 3000 BR
RJAA 231330Z 20003KT 170V230 4000 BR FEW003 SCT006 BKN/// 18/18 Q1004 TEMPO FEW003 BKN007 RMK 1ST003 3ST006 A2965
RJAA 231308Z 23004KT 4000 BR FEW003 BKN007 18/18 Q1004 RMK 1ST003 5ST007 A2966
RJAA 231300Z 24003KT 4000 BR FEW003 SCT080 18/18 Q1004 TEMPO FEW004 BKN008
RJAA 231230Z 29003KT 250V320 6000 FEW003 BKN025 19/18 Q1004 TEMPO 4500 BR FEW004 BKN008
RJAA 231221Z 29003KT 6000 FEW003 SCT012 BKN020 19/18 Q1003 RMK 1ST003 3SC012 6SC020 A2964
RJAA 231204Z 26003KT 6000 FEW002 BKN012 BKN080 18/18 Q1003 RMK 1ST002 5SC012 7AC080 A2964
RJAA 231200Z 26003KT 230V300 6000 FEW002 SCT012 BKN080 18/18 Q1003 TEMPO 4500 BR FEW005 BKN012
RJAA 231130Z VRB02KT 6000 FEW002 BKN080 18/18 Q1003 TEMPO 4500 BR
RJAA 231100Z 31003KT 270V360 5000 BR FEW002 BKN060 BKN080 19/18 Q1003 TEMPO 4500 BR
RJAA 231050Z 32004KT 280V350 5000 BR FEW002 BKN060 19/18 Q1003 RMK 1ST002 7SC060 A2964
RJAA 231030Z 33006KT 4500 BR FEW002 BKN060 BKN070 19/18 Q1003 NOSIG RMK 1ST002 6SC060 7AC070 A2963 9000S-SW
RJAA 231000Z 02009KT 340V060 4500 -RA BR FEW003 SCT045 BKN060 19/18 Q1003 NOSIG RMK 1ST003 4SC045 7SC060 A2963
RJAA 230938Z 36009KT 4500 -RA BR FEW002 BKN045 19/18 Q1003 RMK 1ST002 7SC045 A2964
RJAA 230930Z 36011KT 5000 -RA BR FEW002 SCT007 BKN010 19/18 Q1003 TEMPO 4000 -RA BR FEW005 BKN008
RJAA 230919Z 36008KT 6000 -RA BR FEW002 BKN011 BKN045 19/18 Q1003 RMK 1ST002 5SC011 6SC045 A2964 BR NE-SE
RJAA 230912Z 01008KT 330V050 5000 -RA BR FEW002 SCT012 BKN045 19/18 Q1003 RMK 1ST002 3SC012 6SC045 A2964
RJAA 230900Z 01009KT 4000 -RA BR FEW002 SCT015 BKN045 19/18 Q1003 TEMPO 3000 RA BR FEW008 BKN012 RMK 1ST002 3SC015 6SC045 A2964
RJAA 230843Z 35009KT 4000 -RA BR FEW002 SCT025 BKN040 19/18 Q1003 RMK 1ST002 3SC025 7SC040 A2964
RJAA 230830Z 33007KT 3000 RA BR FEW002 SCT025 BKN040 18/18 Q1003 TEMPO FEW003 BKN008
RJAA 230802Z 33005KT 3000 RA BR FEW002 SCT025 BKN040 18/17 Q1003 RMK 1ST002 3SC025 7SC040 A2964
RJAA 230800Z 32005KT 3200 -RA BR FEW002 SCT025 BKN040 18/18 Q1004 TEMPO 3000 RA BR FEW003 BKN008 RMK 1ST002 3SC025 7SC040 A2965
RJAA 230730Z 35006KT 5000 -RA BR FEW003 SCT030 BKN050 19/18 Q1004 TEMPO 3000 RA BR FEW005 BKN008
RJAA 230709Z VRB01KT 3000 RA BR FEW010 SCT035 BKN050 19/18 Q1004 RMK 1ST010 4SC035 7SC050 A2966
RJAA 230700Z VRB01KT 3500 RA BR FEW010 BKN025 BKN050 19/18 Q1004 TEMPO FEW005 BKN008 RMK 2ST010 5SC025 7SC050 A2967
RJAA 230647Z 30003KT 230V360 4500 -RA BR FEW005 SCT010 BKN025 19/17 Q1004 RMK 1ST005 3ST010 6SC025 A2966
RJAA 230634Z VRB02KT 6000 -RA FEW005 SCT010 BKN025 20/18 Q1004 RMK 1ST005 3ST010 6SC025 A2967
RJAA 230630Z VRB01KT 4500 -RA BR FEW005 SCT010 BKN025 20/17 Q1004 TEMPO FEW005 BKN008
RJAA 230600Z 18005KT 4500 -RA BR FEW005 SCT009 BKN035 20/19 Q1005 TEMPO FEW005 BKN008
RJAA 230530Z 17010KT 7000 -RA FEW005 SCT012 BKN060 21/20 Q1005 TEMPO 4500 -RA BR FEW005 BKN008
RJAA 230500Z 16009KT 7000 -RA FEW006 SCT012 OVC100 22/20 Q1005 TEMPO 4500 -RA BR FEW005 BKN008
RJAA 230430Z 17008KT 130V230 7000 -RA FEW006 BKN010 OVC110 22/21 Q1006 TEMPO FEW005 BKN008
RJAA 230400Z 11006KT 090V150 7000 -RA FEW008 OVC130 22/20 Q1004 NOSIG RMK 1ST008 8AS130 A2966 MOD TURB OBS AT 0333Z 10NM S NARITA 8000FT IN CMB B738 TWB202 AND MOD TURB OBS AT 0353Z COMET 11000FT B777 UAL79 P/FR
RJAA 230330Z 14007KT 110V180 7000 -RA FEW008 OVC130 22/20 Q1005 NOSIG RMK 1ST008 8AS130 A2970 MOD TURB OBS AT 0318Z 20NM NE NARITA 8000FT IN DES B738 JJA1154 P/FR
RJAA 230300Z 21004KT 180V250 9999 FEW008 SCT015 BKN140 22/20 Q1007 NOSIG RMK 1ST008 3SC015 7AC140 A2976
RJAA 230230Z 20005KT 150V250 8000 FEW008 BKN015 BKN150 22/19 Q1008 NOSIG RMK 1ST008 5SC015 7AC150 A2977 MOD TURB OBS AT 0220Z CUPID BTN 13000FT AND FL160 IN CMB B763
RJAA 230200Z 14004KT 070V230 8000 FEW005 SCT012 BKN160 22/20 Q1007 NOSIG RMK 1ST005 4SC012 7AC160 A2976
RJAA 230130Z 10004KT 040V150 7000 BR FEW005 BKN010 BKN170 22/20 Q1008 BECMG FEW008 SCT012
RJAA 230111Z 13003KT 080V200 4500 BR FEW005 BKN010 BKN160 22/20 Q1008 RMK 1ST005 5ST010 7AC160 A2977
RJAA 230100Z VRB02KT 4500 BR FEW005 SCT010 BKN160 21/19 Q1008 BECMG 09006KT 7000 NSW RMK 1ST005 4ST010 7AC160 A2978
RJAA 230030Z VRB01KT 3500 BR FEW003 SCT005 BKN170 21/20 Q1008 NOSIG RMK 1ST003 3ST005 7AC170 A2978
RJAA 230000Z 07003KT 040V110 3000 BR FEW003 SCT004 BKN/// 21/19 Q1008 BECMG 4000 BR RMK 1ST003 3ST004 A2978
RJAA 222330Z VRB02KT 2500 BR FEW002 SCT003 BKN/// 20/19 Q1009 BECMG 4000 BR
RJAA 222316Z 01003KT 2500 R16R/P2000N R16L/1900N BR FEW002 SCT003 BKN/// 20/19 Q1009 RMK 1ST002 3ST003 A2980
RJAA 222300Z VRB01KT 2200 R16R/P2000N R16L/1800U BR FEW002 SCT003 BKN/// 20/20 Q1009 BECMG 4000 BR
RJAA 222239Z VRB01KT 2200 R16R/P2000N R16L/1600U BR SCT002 BKN/// 20/19 Q1009 RMK 3ST002 A2979
RJAA 222230Z VRB01KT 2000 R16R/P2000N R16L/1200N BR SCT002 BKN/// 20/19 Q1009 BECMG 4000 BR
RJAA 222206Z 03002KT 2200 R16R/P2000N R16L/0750V1200U BCFG BR SCT001 BKN/// 20/19 Q1009 RMK 3ST001 A2980 FG ON RWY16L
RJAA 222204Z 04002KT 2200 R16R/P2000N R16L/0650V1100U BCFG BR SCT001 BKN/// 20/19 Q1009 RMK 3ST001 A2980 FG ON RWY16L
RJAA 222200Z 04002KT 2200 R16R/P2000N R16L/0650V1100U BCFG BR SCT001 BKN/// 20/19 Q1009 BECMG 15005KT 4000 BR RMK 3ST001 A2980 FG ON RWY16L
RJAA 222149Z 02003KT 1800 R16R/P2000N R16L/0450V0700N BCFG BR SCT001 BKN/// 20/20 Q1009 RMK 3ST001 A2980 FG ON RWY16L
RJAA 222130Z 01005KT 1800 R16R/2000N R16L/0350V0550N BCFG BR SCT001 BKN/// 19/19 Q1009 BECMG 15005KT 4000 BR RMK 3ST001 A2980 FG ON RWY16L
RJAA 222120Z 02005KT 1800 R16R/1600U R16L/0325V1100D BCFG BR SCT001 BKN/// 19/19 Q1009 RMK 3ST001 A2980 FG ON RWY16L
RJAA 222116Z 01005KT 1800 R16R/1100V1700U R16L/0450V1300D BCFG BR SCT001 BKN/// 19/19 Q1009 RMK 3ST001 A2979 FG ON RWY16L
RJAA 222114Z 01005KT 1800 R16R/1100V1700U R16L/0600V1300D BCFG BR SCT001 BKN/// 19/19 Q1008 RMK 3ST001 A2979 FG ON RWY16L
RJAA 222107Z 01003KT 1200 R16R/0550V1700U R16L/1100V1600D BCFG BR SCT001 BKN/// 19/19 Q1008 RMK 3ST001 A2979 FG ON RWY16R AND RWY34R
RJAA 222106Z 01003KT 1200 R16R/0550V1700U R16L/1100V1600D BCFG BR SCT001 BKN/// 19/19 Q1009 RMK 3ST001 A2979 FG ON RWY16R AND RWY34R
RJAA 222100Z 35003KT 1600 R16R/0375V1000U R16L/0750V1600U BCFG BR SCT001 BKN/// 19/19 Q1009 NOSIG
RJAA 222047Z VRB02KT 1600 R16R/0500V1100D R16L/0300V1200U BCFG BR SCT001 BKN/// 19/19 Q1009 RMK 3ST001 A2980 FG ON RWY16R AND RWY16L AND RWY34R
RJAA 222045Z VRB02KT 1600 R16R/0500V1100D R16L/0300V1200U BCFG BR SCT001 BKN/// 19/19 Q1009 RMK 3ST001 A2980 FG ON RWY16R AND RWY16L AND RWY34R
RJAA 222030Z 36002KT 1600 R16R/0500V1400U R16L/0250V0350N BCFG BR SCT001 BKN/// 19/19 Q1009 NOSIG
RJAA 222026Z 36001KT 1600 R16R/0350V1400U R16L/0300N BCFG BR FEW001 SCT010 BKN/// 18/18 Q1009 RMK 2ST001 3ST010 A2980 FG ON RWY16R AND RWY16L AND RWY34R
RJAA 222020Z VRB01KT 1600 R16R/0350V1900D R16L/0225V0350N BCFG BR FEW001 SCT010 BKN/// 18/18 Q1009 RMK 2ST001 3ST010 A2980 FG ON RWY16R AND RWY16L AND RWE34R
RJAA 222013Z 00000KT 1600 R16R/1900D R16L/0275V1200D BCFG BR FEW001 SCT010 BKN/// 18/18 Q1009 RMK 2ST001 3ST010 A2979 FG ON RWY16L AND RWY34R
RJAA 222010Z VRB01KT 1600 R16R/2000N R16L/0400V1700D BCFG BR FEW001 SCT010 BKN/// 18/18 Q1009 RMK 2ST001 3ST010 A2979 FG ON RWY16L AND RWY34R
RJAA 222006Z VRB01KT 1600 R16R/P2000N R16L/0500V1700N BCFG BR FEW001 SCT010 BKN/// 18/18 Q1009 RMK 2ST001 3ST010 A2979 FG ON RWY16L AND RWY34R
RJAA 222000Z VRB02KT 1600 R16R/P2000N R16L/0900V1800D BCFG BR FEW001 BKN/// 18/18 Q1009 NOSIG
RJAA 221950Z VRB01KT 2500 R16R/0225VP2000U R16L/1300V1800U BCFG BR FEW001 BKN/// 18/18 Q1008 RMK 2ST001 A2979 FG ON RWY16R AND RWY34R
RJAA 221937Z VRB01KT 2500 R16R/0225V1900D R16L/0450V1500U BCFG BR FEW001 BKN/// 18/18 Q1008 RMK 2ST001 A2979 FG ON RWY16R AND RWY16L AND RWY34R
RJAA 221930Z 08001KT 2500 R16R/0400VP2000D R16L/0225V0700U BCFG BR FEW002 BKN/// 18/18 Q1009 TEMPO 0300 FG BKN001
RJAA 221919Z VRB01KT 2500 R16R/1800D R16L/0225V1000D FEW010 BKN/// 18/18 Q1008 RMK 1ST010 A2979 FG ON RWY16L AND RWY34L
RJAA 221900Z 16001KT 2000 R16R/P2000N R16L/2000N BCFG BR FEW002 BKN/// 17/17 Q1008 TEMPO 0300 FG BKN001 RMK 1ST002 A2979 FG ON RWY34L
RJAA 221830Z 17001KT 2000 R16R/P2000N R16L/1600U BCFG BR FEW001 BKN/// 18/18 Q1009 TEMPO 0300 FG BKN001
RJAA 221802Z VRB01KT 1800 R16R/0325VP2000U R16L/P2000N BCFG BR FEW001 BKN/// 18/18 Q1008 RMK 1ST001 A2979 FG ON RWY16R AND RWY34L
RJAA 221800Z VRB01KT 1800 R16R/0325VP2000U R16L/P2000N BCFG BR FEW001 BKN/// 18/18 Q1008 TEMPO 0300 FG BKN001
RJAA 221730Z 14002KT 1800 R16R/1300VP2000U R16L/P2000N BCFG BR FEW001 BKN/// 18/18 Q1009 TEMPO 0300 FG BKN001
RJAA 221700Z 16003KT 1800 R16R/1400VP2000U R16L/P2000N BCFG BR FEW001 BKN/// 18/18 Q1009 TEMPO 0300 FG BKN001 RMK 1ST001 A2980
RJAA 221630Z 17003KT 2500 R16R/P2000N R16L/0450V0900U BCFG BR FEW001 BKN/// 18/18 Q1009 TEMPO 0300 FG BKN001
RJAA 221617Z 16002KT 2500 R16R/P2000N R16L/0300V0450N BCFG BR FEW001 BKN/// 18/18 Q1009 RMK 1ST001 A2979 FG ON RWY16L AND RWY34L
RJAA 221600Z VRB01KT 2000 R16R/1600VP2000N R16L/0200V0275N BCFG BR BKN001 BKN/// 18/18 Q1009 TEMPO 0300 FG RMK 5ST001 A2979 FG ON RWY16L AND RWY34L
RJAA 221549Z VRB01KT 1200 R16R/0375VP2000U R16L/0200N BCFG BR BKN001 19/19 Q1009 RMK 6ST001 A2980 FG ON RWY16L AND RWY34L AND RWY34R
RJAA 221530Z VRB02KT 0200 R16R/0350VP2000D R16L/0200N FG BKN001 19/19 Q1009 NOSIG
RJAA 221511Z 13002KT 0600 R16R/P2000N R16L/0250V0800D FG BKN001 19/19 Q1009 RMK 6ST001 A2980
RJAA 221500Z 10004KT 1500 R16R/P2000N R16L/1000VP2000N BCFG BR BKN001 19/19 Q1009 BECMG 0500 FG RMK 5ST001 A2980 FG ON RWY34L AND RWY34R
RJAA 221442Z 13004KT 3000 BR FEW001 BKN002 18/18 Q1009 RMK 1ST001 7ST002 A2981
RJAA 221430Z 12003KT 5000 BR FEW002 BKN/// 18/18 Q1009 NOSIG
RJAA 221400Z 14003KT 7000 FEW015 BKN/// 18/18 Q1009 NOSIG RMK 1CU015 A2982
RJAA 221330Z 12004KT 9000 FEW015 BKN/// 19/18 Q1009 NOSIG
RJAA 221300Z 12004KT 9999 FEW015 18/18 Q1009 NOSIG RMK 1CU015 A2982
RJAA 221230Z 13003KT 9999 FEW015 19/18 Q1009 NOSIG RMK 1CU015 A2980
RJAA 221200Z 13004KT 9999 FEW015 19/17 Q1009 NOSIG RMK 1CU015 A2980
RJAA 221130Z 13004KT 9999 BKN017 20/18 Q1009 NOSIG RMK 7SC017 A2980
RJAA 221100Z 14005KT 9999 FEW018 SCT/// 20/18 Q1008 NOSIG
RJAA 221030Z 13005KT 9999 FEW015 SCT/// 20/18 Q1008 NOSIG
RJAA 221000Z 13006KT 9999 FEW015 SCT/// 21/18 Q1008 NOSIG
RJAA 220930Z 14007KT 9999 FEW015 BKN/// 21/17 Q1008 NOSIG
RJAA 220900Z 14008KT 090V160 9999 FEW015 BKN/// 22/18 Q1008 NOSIG
RJAA 220830Z 13010KT 9999 FEW015 BKN/// 23/18 Q1007 NOSIG
RJAA 220800Z 14009KT 9999 FEW020 BKN/// 23/18 Q1007 NOSIG RMK 1SC020 A2975
RJAA 220730Z 15012KT 9999 FEW020 BKN/// 23/17 Q1007 NOSIG RMK 1SC020 A2975
RJAA 220700Z 14012KT 9999 FEW030 BKN/// 24/17 Q1007 NOSIG
RJAA 220630Z 14011KT 9999 FEW030 BKN/// 24/17 Q1007 NOSIG
RJAA 220600Z 13012KT 9999 FEW030 BKN/// 24/16 Q1007 NOSIG RMK 1CU030 A2976
RJAA 220530Z 14012KT 9999 FEW030 BKN/// 24/15 Q1007 NOSIG
RJAA 220500Z 15012KT 9999 FEW030 BKN/// 24/16 Q1007 NOSIG RMK 1CU030 A2976
RJAA 220430Z 14012KT 9999 FEW030 BKN/// 25/16 Q1007 NOSIG
RJAA 220400Z 14011KT 9999 FEW025 BKN/// 25/17 Q1007 NOSIG
RJAA 220330Z 14010KT 9999 FEW025 BKN/// 25/17 Q1007 NOSIG
RJAA 220300Z 15010KT 9999 FEW015 BKN/// 25/18 Q1008 NOSIG RMK 1CU015 A2977
RJAA 220230Z 12007KT 080V160 9999 FEW015 BKN035 BKN/// 25/19 Q1008 NOSIG
RJAA 220200Z 14009KT 9999 FEW020 SCT035 BKN/// 26/19 Q1008 NOSIG
RJAA 220130Z 14006KT 090V190 9999 FEW020 SCT040 BKN/// 26/19 Q1008 NOSIG
RJAA 220100Z 12007KT 080V140 9999 FEW015 BKN035 BKN/// 25/20 Q1008 NOSIG
RJAA 220030Z 12005KT 060V160 9999 FEW015 BKN035 25/19 Q1007 NOSIG RMK 1CU015 7SC035 A2976
RJAA 220000Z 13005KT 080V180 9999 FEW015 BKN035 25/21 Q1007 NOSIG RMK 1CU015 7SC035 A2976
RJAA 212330Z 08005KT 020V130 9999 FEW010 SCT/// 23/19 Q1007 NOSIG
RJAA 212300Z 03006KT 9999 FEW010 SCT035 22/19 Q1007 NOSIG RMK 1CU010 3SC035 A2976
RJAA 212230Z 36005KT 330V030 9999 FEW002 BKN/// 21/20 Q1008 NOSIG RMK 1ST002 A2977
RJAA 212206Z 36006KT 5000 BR FEW002 BKN/// 20/20 Q1007 RMK 1ST002 A2976
RJAA 212200Z 36006KT 4500 BR FEW002 BKN/// 20/20 Q1007 BECMG TL2230 8000 NSW
RJAA 212150Z 01005KT 2500 R16R/1200VP2000U R16L/1400VP2000N BCFG BR FEW001 SCT002 BKN/// 20/20 Q1007 RMK 1ST001 4ST002 A2976
RJAA 212147Z 01004KT 2500 R16R/0450VP2000U R16L/0500VP2000U BCFG BR FEW001 SCT002 BKN/// 20/20 Q1007 RMK 1ST001 4ST002 A2976 FG ON RWY34L
RJAA 212144Z 01004KT 1600 R16R/0375VP2000U R16L/0400VP2000U BCFG BR FEW001 BKN002 19/19 Q1007 RMK 1ST001 5ST002 A2976 FG ON RWY16R AND RWY16L AND RWY34L
RJAA 212130Z 36003KT 310V060 0400 R16R/0350V0650N R16L/0375N FG FEW001 BKN002 19/19 Q1007 BECMG 9999 NSW FEW020
RJAA 212126Z 34003KT 310V010 0400 R16R/0325V0650U R16L/0375N FG SCT001 BKN002 19/19 Q1007 RMK 4ST001 7ST002 A2975
RJAA 212100Z 34004KT 0500 R16R/0325N R16L/0325N FG BKN001 BKN002 19/19 Q1007 BECMG 9999 NSW FEW020
RJAA 212046Z 33004KT 0600 R16R/0325V0450N R16L/0450N FG SCT001 BKN002 18/18 Q1007 RMK 4ST001 7ST002 A2974
RJAA 212043Z 33003KT 0600 R16R/0325V0600D R16L/0300V0500N FG SCT001 BKN002 18/18 Q1007 RMK 4ST001 7ST002 A2974
RJAA 212036Z 34003KT 0600 R16R/0350V0800N R16L/0250V0550N FG SCT001 BKN002 18/18 Q1007 RMK 4ST001 7ST002 A2974
RJAA 212035Z 34003KT 0600 R16R/0300V0800U R16L/0250V0550D FG SCT001 BKN002 18/18 Q1007 RMK 4ST001 7ST002 A2974
RJAA 212030Z 35003KT 320V020 0600 R16R/0250V0800U R16L/0250V0550U FG SCT001 BKN002 19/19 Q1007 BECMG 2000 BR FEW005 BKN008
RJAA 212007Z 36004KT 0300 R16R/0150V0300N R16L/0150V0250N FG BKN001 18/18 Q1007 RMK 7ST001 A2974
RJAA 212004Z 36004KT 0300 R16R/0150V0275U R16L/0150V0225N FG BKN001 18/18 Q1007 RMK 7ST001 A2974
RJAA 212000Z 36004KT 0300 R16R/0150V0250N R16L/0150V0225N FG BKN001 18/18 Q1006 NOSIG
RJAA 211930Z 02003KT 0400 R16R/0175V0250N R16L/0225V0325N FG BKN001 18/18 Q1006 NOSIG
RJAA 211914Z 34003KT 0400 R16R/0175V0225N R16L/0325V0450N FG BKN001 18/18 Q1006 RMK 7ST001 A2971
RJAA 211900Z 33003KT 0400 R16R/0275N R16L/0375V0500N FG BKN001 BKN002 18/18 Q1006 NOSIG RMK 5ST001 7ST002 A2971
RJAA 211847Z 33003KT 0800 R16R/0325V0550D R16L/0450V0600N FG BKN001 BKN002 18/18 Q1005 RMK 5ST001 7ST002 A2970
RJAA 211844Z 33003KT 0800 R16R/0350V0550N R16L/0550N FG BKN001 BKN002 18/18 Q1005 RMK 5ST001 7ST002 A2970
RJAA 211843Z 33003KT 0800 R16R/0500N R16L/0450V0600N FG BKN001 BKN002 18/18 Q1005 RMK 5ST001 7ST002 A2970
RJAA 211840Z 34003KT 0800 R16R/0550N R16L/0450V0600N FG BKN001 BKN002 18/18 Q1006 RMK 5ST001 7ST002 A2971
RJAA 211830Z VRB02KT 0600 R16R/0375V0550N R16L/0400V0550N FG BKN001 BKN002 18/18 Q1006 NOSIG
RJAA 211800Z 30003KT 0400 R16R/0375N R16L/0150V0275N FG BKN001 BKN002 18/18 Q1005 NOSIG RMK 5ST001 7ST002 A2969
RJAA 211743Z 30003KT 1800 R16R/0300V0650D R16L/0250V0450N BCFG BR BKN002 19/19 Q1005 RMK 5ST002 A2969 FG ON RWY16R AND RWY16L AND RWY34R
RJAA 211735Z 28003KT 2200 R16R/0600VP2000D R16L/0350V1000D BCFG BR SCT002 18/18 Q1005 RMK 3ST002 A2969 FG ON RWY16L AND RWY34R
RJAA 211730Z 28002KT 3000 R16R/0800VP2000D R16L/0450VP2000D BCFG BR FEW002 18/18 Q1005 NOSIG
RJAA 211700Z 32001KT 4500 R16R/0800VP2000D R16L/0325VP2000D BCFG BR FEW010 17/17 Q1004 NOSIG RMK 1ST010 A2967 FG ON RWY16L
RJAA 211630Z 31002KT 6000 R16R/0325V1500U R16L/P2000N BCFG FEW010 19/19 Q1004 TEMPO 4000 BR
RJAA 211617Z 33003KT 8000 R16R/0350V1100D R16L/P2000N BCFG FEW010 18/18 Q1004 RMK 1ST010 A2966 FG ON RWY16R AND RWY34R
RJAA 211600Z 31002KT 9000 R16R/0550VP2000D R16L/P2000N MIFG FEW015 18/18 Q1004 TEMPO 4000 BR RMK 1CU015 A2967
RJAA 211530Z 00000KT 9000 R16R/P2000N R16L/0550VP2000D MIFG FEW015 18/18 Q1004 TEMPO 4000 BR
RJAA 211500Z 31001KT 9000 R16R/P2000N R16L/0900VP2000U MIFG FEW020 SCT/// 19/19 Q1004 TEMPO 4000 BR
RJAA 211430Z 27001KT 9999 R16R/P2000N R16L/P2000N MIFG FEW020 BKN/// 19/19 Q1004 NOSIG
RJAA 211400Z VRB01KT 9999 MIFG FEW020 BKN/// 19/19 Q1004 BECMG 32005KT RMK 1SC020 A2966
RJAA 211330Z VRB02KT 9999 MIFG FEW020 BKN/// 20/20 Q1004 BECMG 32005KT
RJAA 211300Z VRB02KT 9999 BKN023 21/20 Q1004 NOSIG RMK 7SC023 A2965
RJAA 211230Z 14002KT 9999 BKN025 21/20 Q1004 NOSIG RMK 7SC025 A2966
RJAA 211200Z 15002KT 9999 FEW015 BKN025 20/20 Q1004 NOSIG RMK 1CU015 7CU025 A2966
RJAA 211130Z 14002KT 9999 FEW015 BKN025 20/20 Q1004 NOSIG RMK 1CU015 7CU025 A2965
RJAA 211100Z 15002KT 9999 FEW015 BKN030 20/20 Q1003 NOSIG RMK 1CU015 7CU030 A2964
RJAA 211030Z 14002KT 9999 FEW015 BKN030 BKN/// 20/20 Q1003 NOSIG
RJAA 211000Z 14003KT 9999 FEW015 BKN020 BKN/// 21/20 Q1003 NOSIG RMK 2CU015 5CU020 A2963
RJAA 210930Z 14004KT 9999 FEW015 BKN/// 21/20 Q1002 NOSIG RMK 1CU015 A2961
RJAA 210900Z 14004KT 120V180 9999 FEW020 BKN/// 22/20 Q1002 NOSIG RMK 1SC020 A2960
RJAA 210830Z 15006KT 9999 FEW020 BKN/// 21/20 Q1002 NOSIG
RJAA 210800Z 14004KT 100V180 9999 FEW015 SCT030 BKN/// 21/20 Q1002 NOSIG